RYR26SP EGSS-EIKY
Flight info
| Callsign | RYR26SP |
|---|---|
| Flight time | N/A |
| Altitude | 38000 |
| Route | NUGBO M183 SILVA P86 DIDZA N14 OKSAW DCT BIBPE DCT FELCA DCT OFSOX DCT SLANY DCT KER |
| Aircraft | B738/M-SDE2E3FGHIRWXY/LB1 |
Departure
| Time | 2026-05-07 19:11 |
|---|---|
| Airport | London Stansted Airport (EGSS) |
Arrival
| Time | N/A |
|---|---|
| Airport | Kerry Airport (EIKY) |
| Time | Latitude | Longitude | Altitude | Speed | Heading |
|---|---|---|---|---|---|
| 2026-05-07 18:39 | 51.89128 | 0.25522 | 351 ft | 0 kts | 55° |
| 2026-05-07 18:42 | 51.89160 | 0.25493 | 359 ft | 0 kts | 54° |
| 2026-05-07 18:55 | 51.89150 | 0.25471 | 361 ft | 4 kts | 54° |
| 2026-05-07 18:56 | 51.89138 | 0.25442 | 361 ft | 4 kts | 43° |
| 2026-05-07 18:56 | 51.89120 | 0.25434 | 358 ft | 4 kts | 327° |
| 2026-05-07 18:56 | 51.89101 | 0.25461 | 361 ft | 4 kts | 313° |
| 2026-05-07 18:56 | 51.89095 | 0.25472 | 359 ft | 0 kts | 313° |
| 2026-05-07 19:00 | 51.89124 | 0.25421 | 355 ft | 13 kts | 313° |
| 2026-05-07 19:00 | 51.89173 | 0.25287 | 351 ft | 15 kts | 257° |
| 2026-05-07 19:01 | 51.89104 | 0.25169 | 351 ft | 14 kts | 223° |
| 2026-05-07 19:01 | 51.88995 | 0.25008 | 356 ft | 27 kts | 222° |
| 2026-05-07 19:01 | 51.88845 | 0.24783 | 355 ft | 29 kts | 223° |
| 2026-05-07 19:01 | 51.88760 | 0.24655 | 343 ft | 14 kts | 223° |
| 2026-05-07 19:02 | 51.88665 | 0.24510 | 347 ft | 26 kts | 222° |
| 2026-05-07 19:02 | 51.88504 | 0.24274 | 345 ft | 34 kts | 222° |
| 2026-05-07 19:02 | 51.88337 | 0.24019 | 335 ft | 32 kts | 222° |
| 2026-05-07 19:02 | 51.88176 | 0.23778 | 338 ft | 31 kts | 223° |
| 2026-05-07 19:03 | 51.88024 | 0.23551 | 336 ft | 29 kts | 223° |
| 2026-05-07 19:03 | 51.87882 | 0.23336 | 332 ft | 27 kts | 222° |
| 2026-05-07 19:03 | 51.87756 | 0.23148 | 332 ft | 17 kts | 224° |
| 2026-05-07 19:03 | 51.87741 | 0.23015 | 333 ft | 12 kts | 310° |
| 2026-05-07 19:04 | 51.87783 | 0.22917 | 333 ft | 6 kts | 272° |
| 2026-05-07 19:04 | 51.87749 | 0.22839 | 334 ft | 15 kts | 225° |
| 2026-05-07 19:04 | 51.87650 | 0.22693 | 335 ft | 20 kts | 222° |
| 2026-05-07 19:04 | 51.87544 | 0.22532 | 329 ft | 22 kts | 223° |
| 2026-05-07 19:05 | 51.87421 | 0.22348 | 327 ft | 25 kts | 226° |
| 2026-05-07 19:05 | 51.87411 | 0.22194 | 322 ft | 3 kts | 298° |
| 2026-05-07 19:05 | 51.87433 | 0.22150 | 322 ft | 4 kts | 313° |
| 2026-05-07 19:07 | 51.87434 | 0.22148 | 322 ft | 0 kts | 313° |
| 2026-05-07 19:08 | 51.87436 | 0.22143 | 323 ft | 2 kts | 313° |
| 2026-05-07 19:08 | 51.87438 | 0.22142 | 323 ft | 0 kts | 313° |
| 2026-05-07 19:09 | 51.87438 | 0.22141 | 323 ft | 0 kts | 313° |
| 2026-05-07 19:09 | 51.87448 | 0.22122 | 320 ft | 5 kts | 313° |
| 2026-05-07 19:10 | 51.87496 | 0.22039 | 322 ft | 10 kts | 313° |
| 2026-05-07 19:10 | 51.87539 | 0.22039 | 320 ft | 7 kts | 44° |
| 2026-05-07 19:10 | 51.87659 | 0.22222 | 324 ft | 53 kts | 43° |
| 2026-05-07 19:10 | 51.88105 | 0.22880 | 331 ft | 118 kts | 43° |
| 2026-05-07 19:11 | 51.88838 | 0.23987 | 391 ft | 164 kts | 45° |
| 2026-05-07 19:11 | 51.89681 | 0.25177 | 1186 ft | 157 kts | 45° |
| 2026-05-07 19:11 | 51.90516 | 0.26433 | 1770 ft | 172 kts | 48° |
| 2026-05-07 19:11 | 51.91461 | 0.27883 | 2094 ft | 202 kts | 47° |
| 2026-05-07 19:12 | 51.92594 | 0.29437 | 2400 ft | 226 kts | 33° |
| 2026-05-07 19:12 | 51.94167 | 0.30124 | 2705 ft | 246 kts | 358° |
| 2026-05-07 19:12 | 51.95775 | 0.29224 | 3295 ft | 246 kts | 321° |
| 2026-05-07 19:12 | 51.96719 | 0.27037 | 4053 ft | 237 kts | 288° |
| 2026-05-07 19:13 | 51.97049 | 0.24426 | 4693 ft | 234 kts | 277° |
| 2026-05-07 19:13 | 51.97303 | 0.21824 | 5043 ft | 238 kts | 278° |
| 2026-05-07 19:13 | 51.97578 | 0.19148 | 5002 ft | 240 kts | 279° |
| 2026-05-07 19:13 | 51.97854 | 0.16534 | 4976 ft | 236 kts | 279° |
| 2026-05-07 19:14 | 51.98142 | 0.13871 | 4987 ft | 248 kts | 279° |
| 2026-05-07 19:14 | 51.98449 | 0.11039 | 5114 ft | 262 kts | 279° |
| 2026-05-07 19:14 | 51.98768 | 0.08114 | 6011 ft | 261 kts | 279° |
| 2026-05-07 19:14 | 51.98906 | 0.05143 | 6893 ft | 264 kts | 262° |
| 2026-05-07 19:15 | 51.98527 | 0.02236 | 7708 ft | 265 kts | 257° |
| 2026-05-07 19:15 | 51.98127 | -0.00682 | 8398 ft | 272 kts | 257° |
| 2026-05-07 19:15 | 51.97728 | -0.03706 | 9199 ft | 276 kts | 257° |
| 2026-05-07 19:15 | 51.97332 | -0.06768 | 10008 ft | 279 kts | 257° |
| 2026-05-07 19:16 | 51.96926 | -0.09894 | 10508 ft | 293 kts | 257° |
| 2026-05-07 19:16 | 51.96486 | -0.13259 | 10706 ft | 316 kts | 257° |
| 2026-05-07 19:16 | 51.96021 | -0.16814 | 11225 ft | 326 kts | 257° |
| 2026-05-07 19:16 | 51.95547 | -0.20439 | 11947 ft | 331 kts | 257° |
| 2026-05-07 19:17 | 51.95224 | -0.22910 | 12477 ft | 333 kts | 256° |
| 2026-05-07 19:17 | 51.94740 | -0.26602 | 13254 ft | 337 kts | 256° |
| 2026-05-07 19:17 | 51.94250 | -0.30332 | 14010 ft | 341 kts | 256° |
| 2026-05-07 19:17 | 51.93760 | -0.34059 | 14742 ft | 344 kts | 256° |
| 2026-05-07 19:18 | 51.93258 | -0.37858 | 15521 ft | 346 kts | 256° |
| 2026-05-07 19:18 | 51.92752 | -0.41686 | 16289 ft | 349 kts | 256° |
| 2026-05-07 19:18 | 51.92240 | -0.45547 | 17043 ft | 352 kts | 256° |
| 2026-05-07 19:18 | 51.91721 | -0.49448 | 17787 ft | 356 kts | 257° |
| 2026-05-07 19:19 | 51.91196 | -0.53383 | 18501 ft | 360 kts | 257° |
| 2026-05-07 19:19 | 51.90664 | -0.57360 | 19150 ft | 362 kts | 257° |
| 2026-05-07 19:19 | 51.90128 | -0.61355 | 19809 ft | 365 kts | 257° |
| 2026-05-07 19:19 | 51.89586 | -0.65385 | 20459 ft | 368 kts | 257° |
| 2026-05-07 19:20 | 51.89038 | -0.69445 | 21096 ft | 370 kts | 257° |
| 2026-05-07 19:20 | 51.88484 | -0.73537 | 21726 ft | 373 kts | 257° |
| 2026-05-07 19:20 | 51.87926 | -0.77652 | 22343 ft | 376 kts | 257° |
| 2026-05-07 19:20 | 51.87361 | -0.81810 | 22943 ft | 379 kts | 257° |
| 2026-05-07 19:21 | 51.86791 | -0.85996 | 23546 ft | 382 kts | 257° |
| 2026-05-07 19:21 | 51.86215 | -0.90209 | 24060 ft | 385 kts | 257° |
| 2026-05-07 19:21 | 51.85630 | -0.94448 | 24549 ft | 387 kts | 256° |
| 2026-05-07 19:21 | 51.84757 | -0.98572 | 25021 ft | 389 kts | 244° |
| 2026-05-07 19:22 | 51.83412 | -1.02386 | 25477 ft | 392 kts | 236° |
| 2026-05-07 19:22 | 51.81681 | -1.05804 | 25920 ft | 395 kts | 226° |
| 2026-05-07 19:22 | 51.79738 | -1.08963 | 26400 ft | 398 kts | 225° |
| 2026-05-07 19:22 | 51.77759 | -1.12113 | 26837 ft | 401 kts | 225° |
| 2026-05-07 19:23 | 51.75770 | -1.15285 | 27270 ft | 403 kts | 225° |
| 2026-05-07 19:23 | 51.73778 | -1.18486 | 27711 ft | 406 kts | 225° |
| 2026-05-07 19:23 | 51.71780 | -1.21720 | 28164 ft | 408 kts | 226° |
| 2026-05-07 19:23 | 51.69772 | -1.24981 | 28581 ft | 411 kts | 226° |
| 2026-05-07 19:24 | 51.67756 | -1.28253 | 28983 ft | 413 kts | 226° |
| 2026-05-07 19:24 | 51.65727 | -1.31554 | 29376 ft | 415 kts | 227° |
| 2026-05-07 19:24 | 51.64071 | -1.35359 | 29697 ft | 418 kts | 245° |
| 2026-05-07 19:24 | 51.63242 | -1.39844 | 30068 ft | 421 kts | 262° |
| 2026-05-07 19:25 | 51.63199 | -1.44571 | 30415 ft | 425 kts | 275° |
| 2026-05-07 19:25 | 51.63918 | -1.49213 | 30649 ft | 433 kts | 291° |
| 2026-05-07 19:25 | 51.65310 | -1.53546 | 30931 ft | 437 kts | 297° |
| 2026-05-07 19:25 | 51.66803 | -1.57819 | 31288 ft | 437 kts | 296° |
| 2026-05-07 19:26 | 51.68265 | -1.62102 | 31742 ft | 435 kts | 296° |
| 2026-05-07 19:26 | 51.69617 | -1.66437 | 32203 ft | 431 kts | 289° |
| 2026-05-07 19:26 | 51.70546 | -1.71002 | 32628 ft | 427 kts | 281° |
| 2026-05-07 19:26 | 51.71007 | -1.75701 | 33018 ft | 424 kts | 274° |
| 2026-05-07 19:27 | 51.71296 | -1.80428 | 33427 ft | 423 kts | 274° |
| 2026-05-07 19:27 | 51.71601 | -1.85134 | 33836 ft | 422 kts | 274° |
| 2026-05-07 19:27 | 51.71923 | -1.89825 | 34198 ft | 421 kts | 274° |
| 2026-05-07 19:27 | 51.72254 | -1.94515 | 34473 ft | 421 kts | 274° |
| 2026-05-07 19:28 | 51.72586 | -1.99169 | 34616 ft | 425 kts | 274° |
| 2026-05-07 19:28 | 51.72923 | -2.03911 | 34844 ft | 426 kts | 274° |
| 2026-05-07 19:28 | 51.73258 | -2.08650 | 35171 ft | 425 kts | 274° |
| 2026-05-07 19:28 | 51.73590 | -2.13382 | 35470 ft | 424 kts | 274° |
| 2026-05-07 19:29 | 51.73919 | -2.18117 | 35704 ft | 425 kts | 274° |
| 2026-05-07 19:29 | 51.74246 | -2.22862 | 35933 ft | 426 kts | 274° |
| 2026-05-07 19:29 | 51.74572 | -2.27624 | 36205 ft | 426 kts | 274° |
| 2026-05-07 19:29 | 51.74895 | -2.32373 | 36481 ft | 426 kts | 274° |
| 2026-05-07 19:30 | 51.75217 | -2.37133 | 36718 ft | 427 kts | 274° |
| 2026-05-07 19:30 | 51.75537 | -2.41894 | 36959 ft | 427 kts | 274° |
| 2026-05-07 19:30 | 51.75855 | -2.46658 | 37177 ft | 428 kts | 274° |
| 2026-05-07 19:30 | 51.76173 | -2.51443 | 37368 ft | 429 kts | 274° |
| 2026-05-07 19:31 | 51.76489 | -2.56234 | 37607 ft | 429 kts | 274° |
| 2026-05-07 19:31 | 51.76803 | -2.61022 | 37872 ft | 429 kts | 274° |
| 2026-05-07 19:31 | 51.77115 | -2.65818 | 38036 ft | 430 kts | 274° |
| 2026-05-07 19:31 | 51.77427 | -2.70643 | 38019 ft | 433 kts | 274° |
| 2026-05-07 19:32 | 51.78048 | -2.80331 | 38031 ft | 433 kts | 274° |
| 2026-05-07 19:32 | 51.78657 | -2.89939 | 38038 ft | 427 kts | 274° |
| 2026-05-07 19:33 | 51.79252 | -2.99458 | 38053 ft | 426 kts | 274° |
| 2026-05-07 19:33 | 51.79836 | -3.08961 | 38051 ft | 425 kts | 274° |
| 2026-05-07 19:34 | 51.80414 | -3.18457 | 38046 ft | 425 kts | 274° |
| 2026-05-07 19:34 | 51.80983 | -3.27955 | 38042 ft | 425 kts | 274° |
| 2026-05-07 19:35 | 51.81547 | -3.37487 | 38039 ft | 426 kts | 274° |
| 2026-05-07 19:35 | 51.82106 | -3.47045 | 38036 ft | 428 kts | 273° |
| 2026-05-07 19:36 | 51.82759 | -3.56624 | 38024 ft | 431 kts | 278° |
| 2026-05-07 19:36 | 51.83971 | -3.66122 | 38034 ft | 432 kts | 280° |
| 2026-05-07 19:37 | 51.85274 | -3.75622 | 38023 ft | 433 kts | 280° |
| 2026-05-07 19:37 | 51.86536 | -3.85152 | 38026 ft | 434 kts | 279° |
| 2026-05-07 19:38 | 51.87763 | -3.94715 | 38031 ft | 434 kts | 279° |
| 2026-05-07 19:38 | 51.88974 | -4.04286 | 38018 ft | 434 kts | 279° |
| 2026-05-07 19:39 | 51.90175 | -4.13849 | 38021 ft | 433 kts | 279° |
| 2026-05-07 19:39 | 51.91367 | -4.23398 | 38019 ft | 432 kts | 279° |
| 2026-05-07 19:40 | 51.92541 | -4.32868 | 38012 ft | 431 kts | 279° |
| 2026-05-07 19:40 | 51.93712 | -4.42387 | 38030 ft | 430 kts | 279° |
| 2026-05-07 19:41 | 51.94874 | -4.51889 | 38015 ft | 430 kts | 279° |
| 2026-05-07 19:41 | 51.96026 | -4.61380 | 38026 ft | 429 kts | 279° |
| 2026-05-07 19:42 | 51.97168 | -4.70863 | 38014 ft | 428 kts | 279° |
| 2026-05-07 19:42 | 51.98300 | -4.80327 | 38018 ft | 427 kts | 279° |
| 2026-05-07 19:43 | 51.99423 | -4.89782 | 38022 ft | 427 kts | 279° |
| 2026-05-07 19:43 | 52.00539 | -4.99244 | 38014 ft | 427 kts | 279° |
| 2026-05-07 19:44 | 52.01647 | -5.08704 | 38016 ft | 427 kts | 279° |
| 2026-05-07 19:44 | 52.02749 | -5.18168 | 38018 ft | 427 kts | 279° |
| 2026-05-07 19:45 | 52.04387 | -5.27445 | 38021 ft | 429 kts | 287° |
| 2026-05-07 19:45 | 52.06330 | -5.36621 | 38015 ft | 429 kts | 287° |
| 2026-05-07 19:46 | 52.08236 | -5.45819 | 38014 ft | 430 kts | 286° |
| 2026-05-07 19:46 | 52.10090 | -5.55002 | 38014 ft | 430 kts | 286° |
| 2026-05-07 19:47 | 52.11947 | -5.64294 | 37598 ft | 437 kts | 286° |
| 2026-05-07 19:47 | 52.12879 | -5.68970 | 37274 ft | 431 kts | 285° |
| 2026-05-07 19:47 | 52.13800 | -5.73593 | 36845 ft | 427 kts | 285° |
| 2026-05-07 19:48 | 52.14710 | -5.78172 | 36482 ft | 423 kts | 285° |
| 2026-05-07 19:48 | 52.15569 | -5.82719 | 36090 ft | 418 kts | 281° |
| 2026-05-07 19:48 | 52.16051 | -5.87343 | 35652 ft | 412 kts | 271° |
| 2026-05-07 19:48 | 52.16166 | -5.91983 | 35265 ft | 408 kts | 269° |
| 2026-05-07 19:49 | 52.16241 | -5.96587 | 34862 ft | 405 kts | 269° |
| 2026-05-07 19:49 | 52.16309 | -6.01162 | 34482 ft | 403 kts | 269° |
| 2026-05-07 19:49 | 52.16379 | -6.05704 | 34108 ft | 400 kts | 269° |
| 2026-05-07 19:49 | 52.16453 | -6.10223 | 33677 ft | 398 kts | 269° |
| 2026-05-07 19:50 | 52.16532 | -6.14707 | 33260 ft | 395 kts | 269° |
| 2026-05-07 19:50 | 52.16612 | -6.19155 | 32874 ft | 391 kts | 269° |
| 2026-05-07 19:50 | 52.16692 | -6.23560 | 32517 ft | 387 kts | 269° |
| 2026-05-07 19:50 | 52.16771 | -6.27921 | 32147 ft | 384 kts | 269° |
| 2026-05-07 19:51 | 52.16849 | -6.32253 | 31786 ft | 381 kts | 268° |
| 2026-05-07 19:51 | 52.16924 | -6.36543 | 31431 ft | 377 kts | 268° |
| 2026-05-07 19:51 | 52.16998 | -6.40798 | 31088 ft | 374 kts | 268° |
| 2026-05-07 19:51 | 52.17069 | -6.45015 | 30750 ft | 371 kts | 269° |
| 2026-05-07 19:52 | 52.17138 | -6.49208 | 30402 ft | 369 kts | 268° |
| 2026-05-07 19:52 | 52.17205 | -6.53364 | 30058 ft | 366 kts | 268° |
| 2026-05-07 19:52 | 52.17270 | -6.57498 | 29662 ft | 363 kts | 268° |
| 2026-05-07 19:52 | 52.17334 | -6.61584 | 29314 ft | 359 kts | 268° |
| 2026-05-07 19:53 | 52.17395 | -6.65630 | 28956 ft | 355 kts | 268° |
| 2026-05-07 19:53 | 52.17454 | -6.69632 | 28599 ft | 352 kts | 268° |
| 2026-05-07 19:53 | 52.17511 | -6.73602 | 28253 ft | 348 kts | 268° |
| 2026-05-07 19:53 | 52.17567 | -6.77530 | 27909 ft | 346 kts | 268° |
| 2026-05-07 19:54 | 52.17620 | -6.81439 | 27553 ft | 344 kts | 268° |
| 2026-05-07 19:54 | 52.17672 | -6.85335 | 27227 ft | 344 kts | 268° |
| 2026-05-07 19:54 | 52.17722 | -6.89200 | 26880 ft | 347 kts | 268° |
| 2026-05-07 19:54 | 52.17771 | -6.93124 | 26532 ft | 346 kts | 268° |
| 2026-05-07 19:55 | 52.17820 | -6.97026 | 26178 ft | 343 kts | 268° |
| 2026-05-07 19:55 | 52.17867 | -7.00897 | 25839 ft | 341 kts | 268° |
| 2026-05-07 19:55 | 52.17913 | -7.04740 | 25506 ft | 339 kts | 268° |
| 2026-05-07 19:55 | 52.17957 | -7.08566 | 25168 ft | 337 kts | 268° |
| 2026-05-07 19:56 | 52.17999 | -7.12366 | 24836 ft | 335 kts | 268° |